Time;durP1;ratioP1;P1;durP2;ratioP2;P2;SDS_P1;SDS_P2;PMS_P1;PMS_P2;Temp;Humidity;BMP_temperature;BMP_pressure;BME280_temperature;BME280_humidity;BME280_pressure;Samples;Min_cycle;Max_cycle;Signal;HPM_P1;HPM_P2
2021/04/13 00:01:12;;;;;;;6.18;2.97;;;;;;;-0.05;81.77;100016.06;5089052;28;20036;-71
2021/04/13 00:03:40;;;;;;;5.80;3.10;;;;;;;-0.13;81.13;100011.25;5092764;28;20474;-72
2021/04/13 00:06:06;;;;;;;6.10;3.13;;;;;;;-0.17;81.80;99996.47;5091820;28;20389;-72
2021/04/13 00:08:32;;;;;;;7.05;3.40;;;;;;;-0.30;81.88;99999.09;5076519;28;20082;-72
2021/04/13 00:11:06;;;;;;;5.75;3.17;;;;;;;-0.26;82.13;99999.75;5075070;28;20054;-72
2021/04/13 00:13:32;;;;;;;6.32;3.53;;;;;;;-0.38;82.52;100001.44;5089448;28;20020;-72
2021/04/13 00:16:12;;;;;;;5.05;3.08;;;;;;;-0.62;81.62;99972.06;5085561;28;20029;-72
2021/04/13 00:18:39;;;;;;;;;;;;;;;-0.55;81.96;100007.03;5091691;28;20107;-72
2021/04/13 00:21:11;;;;;;;3.78;2.33;;;;;;;-0.60;82.39;99990.53;5088298;28;19916;-72
2021/04/13 00:23:36;;;;;;;4.45;2.70;;;;;;;-0.71;83.04;99992.13;5084733;28;20082;-72
2021/04/13 00:26:07;;;;;;;4.40;2.75;;;;;;;-0.78;83.21;100004.13;5081947;28;20021;-72
2021/04/13 00:28:41;;;;;;;5.40;2.63;;;;;;;-0.84;82.81;100004.50;5083439;28;20030;-72
2021/04/13 00:31:07;;;;;;;5.65;3.08;;;;;;;-0.76;83.19;99991.59;5089237;28;20111;-72
2021/04/13 00:33:36;;;;;;;7.00;2.75;;;;;;;-0.77;83.14;99989.88;5074656;28;20052;-72
2021/04/13 00:36:15;;;;;;;2.65;1.92;;;;;;;-0.76;83.52;99996.91;5077280;28;20024;-71
2021/04/13 00:38:44;;;;;;;3.90;2.78;;;;;;;-0.70;82.86;100006.28;5087308;28;20028;-72
2021/04/13 00:41:23;;;;;;;;;;;;;;;-0.77;83.30;100000.50;5091656;28;20095;-72
2021/04/13 00:44:02;;;;;;;4.55;2.08;;;;;;;-0.84;83.77;99998.34;5090256;28;20030;-72
2021/04/13 00:46:34;;;;;;;6.32;3.40;;;;;;;-1.02;84.12;99993.31;5093630;28;20039;-72
2021/04/13 00:49:01;;;;;;;4.75;2.83;;;;;;;-1.00;83.81;99995.84;5077235;28;20029;-72
2021/04/13 00:51:30;;;;;;;11.10;3.42;;;;;;;-1.05;83.88;100001.44;5085719;28;20415;-72
2021/04/13 00:53:59;;;;;;;5.32;2.55;;;;;;;-1.06;84.55;100004.22;5089377;28;20024;-72
2021/04/13 00:56:26;;;;;;;4.03;2.50;;;;;;;-1.03;84.30;100006.69;5074443;28;20028;-72
2021/04/13 00:58:58;;;;;;;6.38;3.05;;;;;;;-1.19;84.94;100007.66;5087285;28;20462;-72
2021/04/13 01:01:33;;;;;;;8.77;3.30;;;;;;;-1.25;85.33;100010.72;5089422;28;20028;-72
2021/04/13 01:04:02;;;;;;;6.75;3.28;;;;;;;-1.25;84.70;100002.75;5090952;28;20485;-72
2021/04/13 01:06:31;;;;;;;7.00;3.20;;;;;;;-1.12;85.07;100008.97;5092272;28;20053;-71
2021/04/13 01:09:19;;;;;;;5.05;3.50;;;;;;;-1.29;84.90;100003.91;5090997;28;20378;-70
2021/04/13 01:12:09;;;;;;;5.18;3.33;;;;;;;-1.14;85.00;100008.22;5096102;28;20377;-73
2021/04/13 01:14:35;;;;;;;6.20;3.20;;;;;;;-1.03;85.76;100009.34;5096071;28;20508;-70
2021/04/13 01:17:08;;;;;;;5.40;3.20;;;;;;;-1.16;84.53;99996.84;5083958;28;20039;-71
2021/04/13 01:19:59;;;;;;;6.53;3.35;;;;;;;-1.08;84.19;100006.97;5075482;28;20028;-70
2021/04/13 01:22:51;;;;;;;5.47;2.72;;;;;;;-1.36;83.80;99992.84;5075761;28;20028;-70
2021/04/13 01:25:21;;;;;;;5.13;3.42;;;;;;;-1.41;84.71;100002.03;5073461;28;20024;-71
2021/04/13 01:27:54;;;;;;;6.47;3.80;;;;;;;-1.61;85.18;99987.38;5082194;28;20130;-70
2021/04/13 01:30:22;;;;;;;8.93;3.80;;;;;;;-1.58;85.54;100001.28;5077441;28;20106;-70
2021/04/13 01:32:48;;;;;;;8.77;3.40;;;;;;;-1.66;85.89;99979.69;5083842;28;20063;-70
2021/04/13 01:35:16;;;;;;;6.13;3.45;;;;;;;-1.64;85.90;99991.06;5092366;28;20031;-71
2021/04/13 01:38:22;;;;;;;10.27;4.50;;;;;;;-1.56;86.22;100002.06;5084158;28;20020;-70
2021/04/13 01:43:17;;;;;;;10.27;3.58;;;;;;;-1.31;86.76;100005.81;5075030;28;20111;-70
2021/04/13 01:45:42;;;;;;;7.13;3.47;;;;;;;-1.32;85.77;100002.28;5076180;28;20093;-70
2021/04/13 01:48:11;;;;;;;5.75;3.38;;;;;;;-1.25;85.98;100008.06;5078854;28;20057;-71
2021/04/13 01:50:39;;;;;;;5.40;3.13;;;;;;;-1.16;85.17;99996.84;5083411;28;20115;-71
2021/04/13 01:53:09;;;;;;;5.53;2.88;;;;;;;-1.25;85.04;99994.78;5091958;28;20063;-70
2021/04/13 01:55:37;;;;;;;5.07;3.03;;;;;;;-1.12;85.12;100013.44;5085522;28;20016;-71
2021/04/13 01:58:26;;;;;;;3.78;2.53;;;;;;;-1.07;84.97;100002.50;5086974;28;20031;-71
2021/04/13 02:01:08;;;;;;;4.03;2.63;;;;;;;-1.11;84.33;100017.78;5089597;22;20052;-68
2021/04/13 02:03:42;;;;;;;4.68;2.63;;;;;;;-1.34;84.24;100001.56;5092749;28;20043;-69
2021/04/13 02:06:48;;;;;;;6.88;2.80;;;;;;;-1.38;84.08;100009.81;5091546;28;20047;-69
2021/04/13 02:09:36;;;;;;;4.63;2.67;;;;;;;-1.41;85.58;100005.53;5074629;28;20045;-68
2021/04/13 02:12:12;;;;;;;4.75;3.00;;;;;;;-1.44;85.81;100020.78;5076075;28;20108;-68
2021/04/13 02:14:47;;;;;;;5.80;2.97;;;;;;;-1.46;85.29;100012.94;5074898;28;20505;-68
2021/04/13 02:17:23;;;;;;;5.03;3.00;;;;;;;-1.49;86.16;100023.75;5081757;28;20050;-69
2021/04/13 02:19:50;;;;;;;4.90;2.85;;;;;;;-1.56;85.92;100027.75;5095189;28;20041;-69
2021/04/13 02:22:19;;;;;;;4.55;2.85;;;;;;;-1.61;84.95;100019.22;5076749;28;20036;-69
2021/04/13 02:24:45;;;;;;;3.78;2.55;;;;;;;-1.67;85.87;100024.91;5078878;28;20027;-69
2021/04/13 02:27:17;;;;;;;6.40;3.17;;;;;;;-1.70;85.60;100030.38;5070874;28;20122;-69
2021/04/13 02:29:52;;;;;;;6.68;3.47;;;;;;;-1.74;86.31;100034.19;5048746;28;20028;-68
2021/04/13 02:32:26;;;;;;;7.75;3.58;;;;;;;-1.85;87.06;100021.59;5077708;28;20032;-69
2021/04/13 02:34:59;;;;;;;5.93;3.42;;;;;;;-1.84;87.53;100036.56;5084574;28;20028;-69
2021/04/13 02:37:34;;;;;;;8.07;3.63;;;;;;;-1.81;86.82;100031.94;5080000;28;20028;-69
2021/04/13 02:40:12;;;;;;;6.47;3.40;;;;;;;-1.89;87.44;100030.69;5075789;28;20040;-69
2021/04/13 02:42:43;;;;;;;6.63;3.45;;;;;;;-2.01;86.97;100029.66;5068075;28;20498;-68
2021/04/13 02:45:21;;;;;;;7.75;3.80;;;;;;;-1.99;87.68;100038.38;5066121;28;20025;-69
2021/04/13 02:47:49;;;;;;;7.70;3.97;;;;;;;-2.14;87.50;100024.22;5070626;28;20508;-69
2021/04/13 02:50:18;;;;;;;6.60;3.88;;;;;;;-2.09;87.77;100038.06;5049304;28;20029;-69
2021/04/13 02:52:48;;;;;;;7.07;3.88;;;;;;;-2.10;88.36;100038.13;5073766;28;20048;-68
2021/04/13 02:55:22;;;;;;;7.32;4.45;;;;;;;-2.04;88.71;100040.44;5072840;28;20036;-69
2021/04/13 02:57:49;;;;;;;10.68;4.88;;;;;;;-2.09;89.12;100050.47;5074347;28;20035;-69
2021/04/13 03:00:42;;;;;;;9.80;4.55;;;;;;;-2.11;89.26;100047.91;5064364;28;20022;-68
2021/04/13 03:03:12;;;;;;;6.93;4.30;;;;;;;-1.88;88.71;100043.00;5084879;28;20035;-68
2021/04/13 03:05:39;;;;;;;8.05;4.20;;;;;;;-1.83;88.99;100044.44;5068582;28;20035;-68
2021/04/13 03:08:09;;;;;;;9.63;4.05;;;;;;;-1.75;88.90;100036.00;5052963;28;20485;-68
2021/04/13 03:10:39;;;;;;;7.53;4.22;;;;;;;-1.59;88.30;100039.41;5057553;28;20029;-69
2021/04/13 03:13:15;;;;;;;5.47;3.40;;;;;;;-1.56;87.38;100041.84;5064381;28;20035;-69
2021/04/13 03:15:48;;;;;;;7.25;4.20;;;;;;;-1.69;87.22;100035.63;5072463;28;20089;-69
2021/04/13 03:18:16;;;;;;;6.88;3.72;;;;;;;-1.75;87.30;100040.47;5065091;28;20505;-68
2021/04/13 03:20:51;;;;;;;6.53;4.23;;;;;;;-1.84;88.10;100049.81;5062482;28;20029;-68
2021/04/13 03:23:20;;;;;;;9.02;4.78;;;;;;;-1.90;88.25;100050.19;5057518;28;20031;-68
2021/04/13 03:26:04;;;;;;;7.60;4.32;;;;;;;-1.88;88.45;100054.47;5068792;28;20025;-68
2021/04/13 03:28:45;;;;;;;6.90;4.40;;;;;;;-1.92;88.42;100039.69;5056840;28;20033;-68
2021/04/13 03:31:13;;;;;;;8.50;4.20;;;;;;;-1.87;88.26;100045.56;5076468;28;20031;-68
2021/04/13 03:33:40;;;;;;;10.30;4.00;;;;;;;-2.01;88.00;100045.56;5044259;28;20028;-69
2021/04/13 03:36:10;;;;;;;5.10;3.65;;;;;;;-2.01;88.08;100037.59;5041567;28;20024;-68
2021/04/13 03:38:37;;;;;;;7.97;4.30;;;;;;;-2.00;87.77;100045.44;5069893;28;20024;-68
2021/04/13 03:41:04;;;;;;;9.63;4.38;;;;;;;-2.10;87.80;100052.25;5069879;28;20052;-68
2021/04/13 03:43:31;;;;;;;8.13;3.85;;;;;;;-2.18;87.71;100040.41;5061535;28;20028;-68
2021/04/13 03:46:02;;;;;;;6.85;4.15;;;;;;;-2.04;87.99;100049.25;5061490;28;20031;-68
2021/04/13 03:48:30;;;;;;;10.68;4.63;;;;;;;-1.96;87.50;100046.13;5068418;28;20036;-68
2021/04/13 03:51:00;;;;;;;9.88;4.00;;;;;;;-1.98;87.21;100046.22;5063050;28;20492;-67
2021/04/13 03:53:40;;;;;;;6.07;3.55;;;;;;;-2.02;87.16;100051.78;5043575;28;20017;-68
2021/04/13 03:56:09;;;;;;;6.13;4.25;;;;;;;-2.14;87.11;100049.91;5041930;28;20484;-74
2021/04/13 03:58:37;;;;;;;;;;;;;;;-2.20;87.84;100048.47;5065792;28;20095;-78
2021/04/13 04:01:03;;;;;;;8.27;4.57;;;;;;;-2.35;88.05;100057.31;5062049;28;22418;-75
2021/04/13 04:03:33;;;;;;;5.93;3.80;;;;;;;-2.54;88.08;100045.16;5063368;28;20036;-79
2021/04/13 04:06:02;;;;;;;12.48;4.55;;;;;;;-2.55;88.37;100054.03;5050032;28;20115;-79
2021/04/13 04:08:45;;;;;;;10.18;4.03;;;;;;;-2.53;88.92;100062.75;5045348;28;20025;-76
2021/04/13 04:11:11;;;;;;;8.38;4.60;;;;;;;-2.53;89.02;100051.31;5073190;28;20032;-78
2021/04/13 04:13:57;;;;;;;7.90;4.93;;;;;;;-2.52;88.88;100047.69;5051912;28;20411;-76
2021/04/13 04:16:28;;;;;;;9.80;5.28;;;;;;;-2.51;89.21;100058.22;5050186;28;20163;-78
2021/04/13 04:18:55;;;;;;;6.82;4.90;;;;;;;-2.39;89.26;100071.69;5043512;28;20025;-76
2021/04/13 04:21:33;;;;;;;8.88;4.32;;;;;;;-2.51;89.01;100065.31;5063209;28;20046;-75
2021/04/13 04:24:04;;;;;;;11.75;4.38;;;;;;;-2.54;89.01;100071.66;5077273;28;20025;-81
2021/04/13 04:26:35;;;;;;;8.30;4.25;;;;;;;-2.63;89.10;100066.88;5057799;28;20455;-77
2021/04/13 04:29:17;;;;;;;8.13;4.65;;;;;;;-2.54;89.04;100084.91;5073967;28;20040;-79
2021/04/13 04:31:44;;;;;;;11.60;4.68;;;;;;;-2.60;89.12;100074.63;5057324;28;20075;-78
2021/04/13 04:34:12;;;;;;;11.02;4.82;;;;;;;-2.73;88.74;100089.53;5042955;28;20028;-76
2021/04/13 04:36:55;;;;;;;8.65;4.68;;;;;;;-2.73;89.30;100084.22;5074666;28;20028;-77
2021/04/13 04:39:28;;;;;;;8.30;4.50;;;;;;;-2.81;88.88;100091.75;5053923;28;20040;-78
2021/04/13 04:41:56;;;;;;;8.07;4.32;;;;;;;-2.80;89.19;100083.75;5042140;28;20028;-75
2021/04/13 04:44:29;;;;;;;6.10;3.50;;;;;;;-2.77;89.63;100088.00;5073580;28;20054;-75
2021/04/13 04:47:00;;;;;;;6.55;4.00;;;;;;;-2.72;89.52;100093.91;5052373;28;20059;-72
2021/04/13 04:49:37;;;;;;;9.27;4.72;;;;;;;-2.75;88.88;100088.75;5052258;28;20067;-73
2021/04/13 04:52:02;;;;;;;7.45;4.57;;;;;;;-2.53;89.43;100089.25;5068669;28;20032;-73
2021/04/13 04:54:28;;;;;;;9.25;5.45;;;;;;;-2.40;89.11;100097.34;5053188;28;20592;-76
2021/04/13 04:56:53;;;;;;;8.80;5.25;;;;;;;-2.40;88.77;100078.78;5069858;28;20032;-74
2021/04/13 04:59:18;;;;;;;14.70;7.60;;;;;;;-2.23;88.41;100085.72;5041537;28;20551;-74
2021/04/13 05:01:43;;;;;;;13.88;6.78;;;;;;;-2.26;87.76;100086.75;5061294;28;20037;-77
2021/04/13 05:04:09;;;;;;;11.60;5.72;;;;;;;-2.24;87.51;100095.50;5065469;28;20029;-76
2021/04/13 05:06:34;;;;;;;10.57;5.55;;;;;;;-2.33;87.22;100080.16;5064175;28;20032;-78
2021/04/13 05:08:59;;;;;;;12.13;5.32;;;;;;;-2.43;87.76;100074.53;5051904;28;20060;-78
2021/04/13 05:11:25;;;;;;;6.88;4.25;;;;;;;-2.31;87.82;100074.72;5070445;28;20032;-75
2021/04/13 05:13:52;;;;;;;8.75;4.55;;;;;;;-2.26;86.78;100099.19;5050164;28;20025;-76
2021/04/13 05:16:18;;;;;;;7.43;4.45;;;;;;;-2.17;86.74;100105.72;5057239;28;20051;-76
2021/04/13 05:18:43;;;;;;;12.63;4.38;;;;;;;-2.08;87.27;100105.19;5057048;28;20028;-79
2021/04/13 05:21:09;;;;;;;8.77;4.18;;;;;;;-1.88;86.95;100125.22;5043166;28;20552;-74
2021/04/13 05:23:34;;;;;;;13.35;4.60;;;;;;;-1.65;86.96;100105.25;5049897;28;20108;-72
2021/04/13 05:26:01;;;;;;;6.72;4.20;;;;;;;-1.30;85.83;100110.22;5080107;28;20058;-76
2021/04/13 05:28:26;;;;;;;11.05;4.45;;;;;;;-1.03;84.44;100112.91;5050230;28;20074;-75
2021/04/13 05:30:52;;;;;;;14.40;5.28;;;;;;;-0.81;83.41;100102.63;5043340;28;20024;-76
2021/04/13 05:33:19;;;;;;;16.95;4.45;;;;;;;-0.56;81.75;100109.00;5073662;28;20024;-78
2021/04/13 05:35:45;;;;;;;7.53;3.88;;;;;;;-0.38;81.02;100117.56;5052343;28;20496;-77
2021/04/13 05:38:16;;;;;;;12.85;4.90;;;;;;;-0.43;79.87;100109.06;5041758;28;20025;-74
2021/04/13 05:40:42;;;;;;;18.15;4.25;;;;;;;-0.39;80.54;100106.09;5059949;28;20035;-75
2021/04/13 05:43:09;;;;;;;12.18;4.05;;;;;;;-0.39;79.58;100098.13;5035182;28;20036;-75
2021/04/13 05:45:36;;;;;;;12.90;4.70;;;;;;;0.05;79.86;100130.66;5055255;28;20107;-75
2021/04/13 05:48:03;;;;;;;12.55;4.60;;;;;;;0.37;78.80;100128.47;5070595;28;20028;-76
2021/04/13 05:50:34;;;;;;;10.18;4.35;;;;;;;0.78;77.00;100135.38;5053300;28;20036;-78
2021/04/13 05:53:00;;;;;;;8.85;4.95;;;;;;;1.10;76.32;100138.41;5037486;28;20036;-80
2021/04/13 05:55:25;;;;;;;8.45;4.70;;;;;;;1.84;74.92;100131.22;5056498;28;20017;-77
2021/04/13 05:57:57;;;;;;;7.05;4.63;;;;;;;2.44;71.47;100133.81;5062645;28;20051;-75
2021/04/13 06:00:24;;;;;;;8.27;4.90;;;;;;;2.65;70.74;100132.16;5072801;28;20028;-77
2021/04/13 06:02:51;;;;;;;9.48;5.38;;;;;;;2.55;70.00;100125.84;5068991;28;20060;-74
2021/04/13 06:05:20;;;;;;;9.85;5.40;;;;;;;3.04;69.32;100143.34;5058172;28;20029;-74
2021/04/13 06:07:45;;;;;;;11.68;6.93;;;;;;;2.84;69.68;100129.72;5059014;28;20112;-73
2021/04/13 06:10:11;;;;;;;8.73;6.07;;;;;;;2.71;69.94;100129.00;5072999;28;20063;-74
2021/04/13 06:12:41;;;;;;;9.02;6.20;;;;;;;2.91;69.09;100146.16;5047372;28;20242;-73
2021/04/13 06:15:08;;;;;;;5.18;3.95;;;;;;;3.35;67.17;100146.22;5040952;28;20025;-75
2021/04/13 06:17:33;;;;;;;5.82;3.90;;;;;;;3.71;66.06;100132.50;5078283;28;20016;-75
2021/04/13 06:19:59;;;;;;;10.77;3.83;;;;;;;7.29;58.51;100142.53;5073383;28;20421;-70
2021/04/13 06:22:24;;;;;;;10.68;3.80;;;;;;;9.31;52.31;100140.03;5086568;28;20052;-78
2021/04/13 06:24:50;;;;;;;6.18;3.72;;;;;;;9.13;52.33;100127.44;5073403;28;20021;-74
2021/04/13 06:27:15;;;;;;;5.93;3.42;;;;;;;9.62;49.83;100124.09;5086487;28;20065;-74
2021/04/13 06:29:40;;;;;;;5.07;3.53;;;;;;;10.40;49.05;100125.53;5064692;28;20032;-75
2021/04/13 06:32:08;;;;;;;6.05;3.75;;;;;;;11.07;46.94;100136.94;5093443;28;20051;-73
2021/04/13 06:34:34;;;;;;;7.20;3.78;;;;;;;12.89;44.62;100139.19;5071169;28;20013;-75
2021/04/13 06:37:01;;;;;;;5.88;4.13;;;;;;;12.71;44.08;100125.94;5058316;28;20046;-75
2021/04/13 06:39:27;;;;;;;6.43;4.18;;;;;;;13.58;41.50;100125.31;5067678;28;20028;-73
2021/04/13 06:42:43;;;;;;;5.93;3.90;;;;;;;13.63;41.80;100140.22;5065186;28;20017;-72
2021/04/13 06:45:59;;;;;;;4.95;3.70;;;;;;;15.33;39.62;100135.66;5022843;28;20048;-71
2021/04/13 06:48:47;;;;;;;5.38;3.97;;;;;;;16.04;38.35;100133.66;5026016;28;20048;-74
2021/04/13 06:51:35;;;;;;;6.93;4.82;;;;;;;15.06;38.14;100129.22;5075862;28;20025;-74
2021/04/13 06:54:40;;;;;;;5.68;4.45;;;;;;;14.51;39.78;100141.75;5068947;28;20031;-75
2021/04/13 06:57:42;;;;;;;7.32;4.88;;;;;;;13.49;40.70;100136.47;5057110;28;20029;-73
2021/04/13 07:00:19;;;;;;;6.85;4.97;;;;;;;15.64;37.70;100136.22;5066024;28;20025;-75
2021/04/13 07:02:50;;;;;;;7.80;4.70;;;;;;;16.24;37.15;100137.25;5062944;28;20022;-72
2021/04/13 07:05:28;;;;;;;7.22;5.10;;;;;;;18.08;34.34;100135.47;5071665;28;20107;-72
2021/04/13 07:08:15;;;;;;;8.93;4.63;;;;;;;16.67;35.33;100127.84;5060078;28;20099;-72
2021/04/13 07:10:45;;;;;;;5.63;4.28;;;;;;;18.17;33.86;100134.13;5059023;28;20040;-72
2021/04/13 07:13:43;;;;;;;5.45;4.60;;;;;;;16.88;36.13;100135.84;5059248;28;20090;-72
2021/04/13 07:16:15;;;;;;;6.78;4.88;;;;;;;15.88;38.00;100137.63;5064070;28;20566;-73
2021/04/13 07:18:50;;;;;;;5.55;4.32;;;;;;;16.23;37.36;100134.75;5063103;28;20071;-75
2021/04/13 07:21:25;;;;;;;6.30;4.72;;;;;;;17.59;36.20;100132.31;5044071;28;20037;-75
2021/04/13 07:23:55;;;;;;;6.65;4.90;;;;;;;18.66;34.16;100123.47;5044237;28;20029;-74
2021/04/13 07:26:31;;;;;;;6.95;5.25;;;;;;;17.98;34.70;100127.72;5065794;28;20107;-74
2021/04/13 07:29:08;;;;;;;7.50;5.88;;;;;;;17.65;35.86;100139.63;5068102;28;20116;-71
2021/04/13 07:31:42;;;;;;;8.57;5.45;;;;;;;16.99;35.54;100128.91;5063882;28;20029;-72
2021/04/13 07:34:08;;;;;;;5.28;4.78;;;;;;;17.47;35.64;100131.28;5056559;28;20032;-73
2021/04/13 07:36:40;;;;;;;8.50;5.53;;;;;;;15.65;38.00;100129.72;5038768;28;20386;-72
2021/04/13 07:39:07;;;;;;;7.60;5.47;;;;;;;16.88;37.50;100126.81;5065963;28;20020;-75
2021/04/13 07:41:55;;;;;;;8.82;6.43;;;;;;;17.37;35.46;100119.94;5042404;28;20024;-71
2021/04/13 07:44:28;;;;;;;8.03;6.30;;;;;;;19.56;33.27;100125.72;5071625;28;20051;-75
2021/04/13 07:47:17;;;;;;;5.95;5.28;;;;;;;18.25;33.33;100127.56;5058427;28;20858;-73
2021/04/13 07:49:52;;;;;;;6.68;5.43;;;;;;;19.11;34.10;100126.03;5072032;28;20026;-74
2021/04/13 07:52:30;;;;;;;7.75;5.40;;;;;;;20.20;32.92;100117.91;5060975;28;20036;-75
2021/04/13 07:55:07;;;;;;;7.78;6.60;;;;;;;20.04;32.40;100122.16;5049604;28;20028;-70
2021/04/13 07:57:41;;;;;;;8.77;5.57;;;;;;;20.64;31.19;100119.34;5044001;28;20163;-72
2021/04/13 08:00:19;;;;;;;7.32;5.63;;;;;;;21.50;30.32;100122.44;5065807;28;20033;-74
2021/04/13 08:02:51;;;;;;;8.65;5.70;;;;;;;21.30;29.93;100127.47;5235503;22;20524;-78
2021/04/13 08:05:37;;;;;;;7.88;5.82;;;;;;;20.92;30.95;100126.91;5078841;28;20032;-71
2021/04/13 08:08:30;;;;;;;6.00;5.22;;;;;;;21.60;29.95;100111.66;5075675;28;20029;-71
2021/04/13 08:11:19;;;;;;;6.72;5.95;;;;;;;20.44;30.74;100124.31;5086940;28;20024;-74
2021/04/13 08:13:48;;;;;;;8.00;5.60;;;;;;;20.29;31.65;100120.09;5063307;28;20535;-76
2021/04/13 08:16:27;;;;;;;;;;;;;;;18.75;32.78;100131.19;5072100;28;20032;-78
2021/04/13 08:18:54;;;;;;;6.43;5.63;;;;;;;18.50;33.65;100113.91;5056187;28;19912;-74
2021/04/13 08:21:22;;;;;;;7.45;5.38;;;;;;;19.79;31.17;100125.03;5060747;28;20047;-75
2021/04/13 08:23:51;;;;;;;6.43;5.30;;;;;;;20.21;29.70;100112.19;5063453;28;20374;-74
2021/04/13 08:26:31;;;;;;;5.97;4.97;;;;;;;20.53;30.42;100114.63;5069883;28;20103;-71
2021/04/13 08:29:23;;;;;;;6.50;4.82;;;;;;;20.88;30.62;100111.09;5082057;28;20025;-78
2021/04/13 08:35:12;;;;;;;4.90;4.35;;;;;;;19.01;31.45;100121.88;5070168;28;20519;-76
2021/04/13 08:37:54;;;;;;;5.32;4.75;;;;;;;18.74;32.03;100124.00;5061888;28;20025;-77
2021/04/13 08:41:01;;;;;;;5.43;4.55;;;;;;;19.61;31.39;100115.72;5066113;28;20025;-75
2021/04/13 08:43:35;;;;;;;4.55;4.15;;;;;;;20.68;29.69;100115.06;5027908;28;20043;-76
2021/04/13 08:46:30;;;;;;;5.68;4.32;;;;;;;21.19;29.11;100113.47;5068149;28;20035;-73
2021/04/13 08:49:10;;;;;;;4.38;3.75;;;;;;;20.15;28.79;100118.63;5072006;28;20112;-75
2021/04/13 08:51:42;;;;;;;3.97;3.58;;;;;;;20.04;29.64;100109.28;5071854;28;20017;-73
2021/04/13 08:54:19;;;;;;;4.57;3.47;;;;;;;18.45;31.49;100128.25;5079862;28;20020;-72
2021/04/13 08:57:03;;;;;;;4.65;3.78;;;;;;;15.91;34.44;100137.19;5067088;28;20029;-78
2021/04/13 08:59:55;;;;;;;5.03;3.75;;;;;;;18.61;33.05;100127.69;5058695;28;20024;-79
2021/04/13 09:02:34;;;;;;;4.47;3.42;;;;;;;17.54;31.51;100132.09;5053358;28;20514;-79
2021/04/13 09:05:11;;;;;;;6.50;4.13;;;;;;;19.03;31.55;100125.25;5085051;28;20032;-80
2021/04/13 09:08:00;;;;;;;4.88;3.58;;;;;;;21.30;28.32;100121.97;5069496;28;20503;-78
2021/04/13 09:10:40;;;;;;;5.38;4.05;;;;;;;21.20;28.26;100120.69;5075228;28;20090;-78
2021/04/13 09:13:21;;;;;;;5.00;3.72;;;;;;;18.49;30.38;100129.47;5075313;28;20021;-79
2021/04/13 09:16:11;;;;;;;5.70;4.30;;;;;;;15.05;36.00;100135.72;5073745;28;20509;-77
2021/04/13 09:18:45;;;;;;;6.13;4.38;;;;;;;13.59;38.23;100148.72;5053561;28;20017;-76
2021/04/13 09:21:26;;;;;;;6.18;4.63;;;;;;;11.70;41.58;100145.16;5052251;28;20627;-75
2021/04/13 09:24:21;;;;;;;7.30;4.30;;;;;;;9.85;43.48;100149.50;5058236;28;20039;-77
2021/04/13 09:26:53;;;;;;;5.75;4.15;;;;;;;9.93;44.77;100150.50;5060895;28;20143;-76
2021/04/13 09:29:49;;;;;;;5.88;4.03;;;;;;;11.57;41.68;100133.00;5058329;28;20032;-76
2021/04/13 09:32:25;;;;;;;4.75;3.88;;;;;;;11.79;40.05;100138.69;5061383;28;20017;-76
2021/04/13 09:34:56;;;;;;;5.38;3.50;;;;;;;11.44;40.11;100138.16;5068838;28;20020;-73
2021/04/13 09:37:31;;;;;;;5.72;3.58;;;;;;;13.21;38.14;100128.13;5066737;28;20049;-76
2021/04/13 09:40:21;;;;;;;6.35;4.38;;;;;;;12.95;38.25;100118.56;5055140;28;20401;-73
2021/04/13 09:43:03;;;;;;;6.65;4.45;;;;;;;12.84;38.37;100125.31;5070986;28;20029;-75
2021/04/13 09:45:42;;;;;;;6.40;4.40;;;;;;;12.15;40.62;100130.81;5068578;28;20494;-74
2021/04/13 09:48:33;;;;;;;5.53;4.03;;;;;;;10.97;41.68;100139.00;5069582;28;20036;-76
2021/04/13 09:51:25;;;;;;;6.85;4.82;;;;;;;11.27;42.75;100131.97;5068477;28;20478;-78
2021/04/13 09:54:18;;;;;;;6.15;4.07;;;;;;;14.30;36.48;100112.66;5076988;28;20504;-75
2021/04/13 09:57:17;;;;;;;5.32;4.13;;;;;;;13.04;35.70;100128.31;5064691;28;20073;-77
2021/04/13 10:00:01;;;;;;;;;;;;;;;12.41;37.78;100122.31;5063848;28;20489;-75
2021/04/13 10:03:09;;;;;;;5.47;3.97;;;;;;;11.80;39.20;100115.97;5076620;28;19912;-77
2021/04/13 10:05:37;;;;;;;7.28;4.80;;;;;;;11.13;40.96;100124.56;5061300;28;20057;-74
2021/04/13 10:08:10;;;;;;;5.18;3.90;;;;;;;11.22;40.21;100130.81;5070678;28;20520;-75
2021/04/13 10:10:54;;;;;;;4.65;3.78;;;;;;;15.29;36.06;100114.44;5069790;28;20038;-74
2021/04/13 10:13:41;;;;;;;7.20;3.78;;;;;;;18.81;30.10;100102.03;5067165;28;20039;-76
2021/04/13 10:16:12;;;;;;;7.28;4.05;;;;;;;19.50;28.69;100097.28;5059163;28;20119;-76
2021/04/13 10:18:56;;;;;;;6.47;4.00;;;;;;;20.23;28.30;100099.06;5060354;28;20110;-75
2021/04/13 10:21:36;;;;;;;3.70;3.40;;;;;;;20.91;26.47;100092.22;5064502;28;20104;-74
2021/04/13 10:24:26;;;;;;;4.93;3.92;;;;;;;21.78;26.39;100096.03;5059066;28;20087;-71
2021/04/13 10:27:20;;;;;;;4.65;3.80;;;;;;;21.38;26.22;100086.69;5054643;28;20547;-71
2021/04/13 10:29:51;;;;;;;4.32;3.92;;;;;;;23.11;26.15;100082.59;5052879;28;20028;-71
2021/04/13 10:32:28;;;;;;;5.85;3.60;;;;;;;23.22;25.41;100078.06;5069908;28;20052;-71
2021/04/13 10:35:31;;;;;;;4.95;3.95;;;;;;;20.27;28.00;100083.75;5069819;28;20607;-71
2021/04/13 10:38:47;;;;;;;5.28;3.83;;;;;;;15.86;33.01;100091.41;5058176;28;20033;-70
2021/04/13 10:41:12;;;;;;;6.90;3.90;;;;;;;15.12;34.43;100095.72;5015304;28;20532;-71
2021/04/13 10:43:47;;;;;;;4.80;3.72;;;;;;;14.54;35.69;100086.94;5049805;28;20041;-70
2021/04/13 10:46:43;;;;;;;4.75;3.97;;;;;;;17.35;32.83;100092.81;5063001;28;20040;-71
2021/04/13 10:49:38;;;;;;;6.05;3.75;;;;;;;19.21;30.18;100076.94;5050703;28;20386;-71
2021/04/13 10:52:23;;;;;;;4.13;2.90;;;;;;;21.85;27.73;100081.03;5048842;28;20032;-71
2021/04/13 10:54:57;;;;;;;3.35;2.83;;;;;;;20.08;29.18;100076.66;5059166;28;20035;-72
2021/04/13 10:58:01;;;;;;;3.95;2.92;;;;;;;16.96;33.43;100088.31;5053053;28;20040;-70
2021/04/13 11:00:53;;;;;;;4.07;3.22;;;;;;;14.78;37.25;100093.00;5052522;28;20090;-74
2021/04/13 11:03:56;;;;;;;5.03;3.60;;;;;;;12.49;40.89;100096.97;5068847;28;20040;-73
2021/04/13 11:06:34;;;;;;;4.43;3.60;;;;;;;11.41;44.27;100095.16;5070221;28;20501;-76
2021/04/13 11:09:08;;;;;;;4.90;3.40;;;;;;;9.87;47.98;100106.91;5069895;28;20036;-74
2021/04/13 11:12:26;;;;;;;5.10;3.70;;;;;;;9.43;49.59;100096.34;5063570;28;20028;-73
2021/04/13 11:15:17;;;;;;;6.05;3.63;;;;;;;9.02;49.14;100102.59;5060578;28;20087;-73
2021/04/13 11:18:00;;;;;;;5.45;3.20;;;;;;;9.20;48.51;100087.16;5036129;28;20079;-73
2021/04/13 11:20:35;;;;;;;4.03;3.28;;;;;;;9.57;48.15;100100.25;5068567;28;20123;-72
2021/04/13 11:23:21;;;;;;;3.75;3.30;;;;;;;9.72;49.18;100100.47;5070692;28;20425;-72
2021/04/13 11:26:05;;;;;;;6.07;3.00;;;;;;;10.59;46.46;100087.31;5067800;28;20036;-73
2021/04/13 11:29:16;;;;;;;4.45;2.90;;;;;;;15.86;37.24;100074.19;5057800;28;20036;-75
2021/04/13 11:32:09;;;;;;;3.63;2.63;;;;;;;18.68;30.94;100050.03;5067600;28;20043;-78
2021/04/13 11:34:55;;;;;;;3.10;2.58;;;;;;;18.99;28.52;100041.75;5055882;28;20033;-73
2021/04/13 11:37:48;;;;;;;4.15;2.80;;;;;;;18.88;30.33;100038.91;5073488;28;20029;-73
2021/04/13 11:40:32;;;;;;;4.20;2.75;;;;;;;15.72;33.09;100051.50;5057534;28;20051;-75
2021/04/13 11:42:58;;;;;;;4.13;2.80;;;;;;;13.31;35.39;100056.19;5058280;28;20031;-73
2021/04/13 11:46:00;;;;;;;2.92;2.60;;;;;;;14.81;35.34;100055.28;5058503;28;20040;-73
2021/04/13 11:48:43;;;;;;;4.38;2.60;;;;;;;14.12;35.35;100045.09;5054610;28;20108;-72
2021/04/13 11:51:09;;;;;;;3.65;2.42;;;;;;;16.52;31.24;100043.34;5054081;28;20044;-71
2021/04/13 11:53:41;;;;;;;4.93;2.60;;;;;;;17.77;29.23;100032.22;5066009;28;20024;-71
2021/04/13 11:56:22;;;;;;;3.20;2.30;;;;;;;18.76;30.00;100041.59;5071595;28;20298;-73
2021/04/13 11:59:19;;;;;;;3.97;2.13;;;;;;;19.22;27.14;100031.97;5066988;28;20020;-72
2021/04/13 12:01:46;;;;;;;3.28;2.00;;;;;;;20.07;26.26;100020.88;5064409;28;20048;-72
2021/04/13 12:04:15;;;;;;;2.28;1.73;;;;;;;20.21;27.25;100027.00;5071802;28;20093;-72
2021/04/13 12:07:01;;;;;;;3.13;2.15;;;;;;;21.00;25.19;100026.66;5072090;28;20032;-72
2021/04/13 12:09:42;;;;;;;2.72;1.90;;;;;;;18.95;26.90;100023.22;5067511;28;20032;-71
2021/04/13 12:12:33;;;;;;;3.72;1.80;;;;;;;17.14;31.41;100044.72;5071855;28;20477;-71
2021/04/13 12:15:02;;;;;;;2.05;1.85;;;;;;;14.92;31.81;100050.31;5082510;28;20021;-72